createdAt,value
2019-05-23T00:03:07.285Z,14.30
2019-05-23T00:08:21.108Z,13.72
2019-05-23T00:13:42.733Z,14.40
2019-05-23T00:18:46.364Z,14.58
2019-05-23T00:23:48.369Z,13.22
2019-05-23T00:28:50.211Z,13.50
2019-05-23T00:33:52.712Z,15.15
2019-05-23T00:38:54.899Z,15.75
2019-05-23T00:43:57.243Z,16.15
2019-05-23T00:48:59.691Z,16.27
2019-05-23T00:54:01.887Z,16.32
2019-05-23T00:59:07.627Z,14.28
2019-05-23T01:04:10.407Z,15.90
2019-05-23T01:09:15.044Z,15.38
2019-05-23T01:14:16.964Z,15.85
2019-05-23T01:19:19.691Z,15.15
2019-05-23T01:24:23.776Z,15.63
2019-05-23T01:29:37.350Z,15.30
2019-05-23T01:34:33.775Z,14.10
2019-05-23T01:39:35.515Z,15.30
2019-05-23T01:44:37.599Z,15.20
2019-05-23T01:49:39.416Z,15.43
2019-05-23T01:54:41.883Z,14.95
2019-05-23T01:59:43.978Z,13.70
2019-05-23T02:04:45.572Z,14.70
2019-05-23T02:09:47.743Z,14.58
2019-05-23T02:14:49.509Z,14.35
2019-05-23T02:19:52.527Z,13.43
2019-05-23T02:24:55.990Z,13.28
2019-05-23T02:29:58.799Z,14.00
2019-05-23T02:35:02.060Z,13.95
2019-05-23T02:40:21.295Z,15.05
2019-05-23T02:45:29.055Z,14.55
2019-05-23T02:50:35.264Z,14.68
2019-05-23T02:55:38.527Z,14.15
2019-05-23T03:00:54.608Z,14.58
2019-05-23T03:05:56.149Z,15.00
2019-05-23T03:11:14.765Z,14.20
2019-05-23T03:16:22.132Z,13.95
2019-05-23T03:21:25.265Z,13.88
2019-05-23T03:26:45.849Z,13.58
2019-05-23T03:31:52.717Z,14.07
2019-05-23T03:36:56.206Z,14.50
2019-05-23T03:41:58.586Z,13.95
2019-05-23T03:47:01.537Z,14.18
2019-05-23T03:52:04.167Z,13.88
2019-05-23T03:57:07.737Z,14.55
2019-05-23T04:02:12.930Z,13.35
2019-05-23T04:07:14.644Z,13.25
2019-05-23T04:12:19.965Z,13.72
2019-05-23T04:17:22.128Z,13.58
2019-05-23T04:22:23.868Z,13.55
2019-05-23T04:27:25.836Z,13.25
2019-05-23T04:32:28.233Z,13.88
2019-05-23T04:37:29.972Z,14.03
2019-05-23T04:42:31.966Z,14.65
2019-05-23T04:47:33.746Z,14.28
2019-05-23T04:52:35.711Z,14.47
2019-05-23T04:57:38.201Z,15.72
2019-05-23T05:02:40.502Z,14.58
2019-05-23T05:07:44.346Z,14.93
2019-05-23T05:12:47.319Z,14.10
2019-05-23T05:17:49.316Z,14.68
2019-05-23T05:22:51.792Z,15.35
2019-05-23T05:27:54.306Z,16.15
2019-05-23T05:32:56.165Z,16.00
2019-05-23T05:37:58.055Z,15.30
2019-05-23T05:43:01.727Z,16.00
2019-05-23T05:48:04.309Z,15.30
2019-05-23T05:53:06.522Z,15.32
2019-05-23T05:58:08.212Z,15.23
2019-05-23T06:03:10.617Z,15.08
2019-05-23T06:08:19.994Z,15.93
2019-05-23T06:13:22.231Z,16.35
2019-05-23T06:18:24.377Z,17.75
2019-05-23T06:23:26.503Z,16.62
2019-05-23T06:28:30.156Z,17.73
2019-05-23T06:33:33.240Z,18.35
2019-05-23T06:38:37.379Z,16.25
2019-05-23T06:43:39.273Z,17.42
2019-05-23T06:48:45.559Z,18.55
2019-05-23T06:53:44.799Z,19.40
2019-05-23T06:58:46.752Z,19.57
2019-05-23T07:03:48.450Z,18.82
2019-05-23T07:08:50.213Z,17.92
2019-05-23T07:13:51.928Z,18.32
2019-05-23T07:18:53.536Z,16.97
2019-05-23T07:23:55.900Z,18.17
2019-05-23T07:28:57.799Z,17.87
2019-05-23T07:34:02.316Z,18.00
2019-05-23T07:39:04.195Z,17.25
2019-05-23T07:44:06.689Z,17.05
2019-05-23T07:49:08.552Z,17.98
2019-05-23T07:54:35.711Z,17.87
2019-05-23T07:59:37.592Z,17.15
2019-05-23T08:04:39.372Z,17.73
2019-05-23T08:09:41.055Z,17.57
2019-05-23T08:14:42.800Z,17.15
2019-05-23T08:19:49.653Z,16.17
2019-05-23T08:24:51.092Z,16.73
2019-05-23T08:29:51.873Z,17.07
2019-05-23T08:34:53.718Z,15.45
2019-05-23T08:39:57.885Z,14.78
2019-05-23T08:45:00.107Z,13.98
2019-05-23T08:50:02.686Z,13.45
2019-05-23T08:55:07.003Z,13.80
2019-05-23T09:00:10.388Z,12.28
2019-05-23T09:05:12.470Z,11.70
2019-05-23T09:10:15.415Z,11.93
2019-05-23T09:15:17.271Z,11.83
2019-05-23T09:20:19.582Z,12.23
2019-05-23T09:25:21.381Z,13.40
2019-05-23T09:30:25.702Z,11.00
2019-05-23T09:35:28.194Z,12.33
2019-05-23T09:40:30.381Z,12.65
2019-05-23T09:45:32.427Z,11.78
2019-05-23T09:50:34.496Z,14.38
2019-05-23T09:55:36.257Z,14.65
2019-05-23T10:00:38.583Z,14.23
2019-05-23T10:05:43.875Z,16.67
2019-05-23T10:10:45.362Z,15.25
2019-05-23T10:15:53.009Z,19.40
2019-05-23T10:20:54.745Z,16.55
2019-05-23T10:25:56.561Z,17.90
2019-05-23T10:30:58.268Z,16.65
2019-05-23T10:36:01.270Z,17.62
2019-05-23T10:41:03.880Z,14.38
2019-05-23T10:46:05.628Z,15.20
2019-05-23T10:51:07.469Z,15.53
2019-05-23T10:56:09.318Z,15.68
2019-05-23T11:01:12.238Z,13.50
2019-05-23T11:06:16.530Z,12.35
2019-05-23T11:11:17.721Z,12.55
2019-05-23T11:16:19.454Z,12.30
2019-05-23T11:21:21.283Z,11.18
2019-05-23T11:26:23.185Z,11.50
2019-05-23T11:31:25.658Z,8.55
2019-05-23T11:36:35.408Z,8.35
2019-05-23T11:41:31.375Z,9.95
2019-05-23T11:46:35.063Z,9.75
2019-05-23T11:51:37.638Z,8.65
2019-05-23T11:56:39.639Z,8.88
2019-05-23T12:01:59.716Z,8.65
2019-05-23T12:07:19.619Z,9.05
2019-05-23T12:12:22.481Z,8.10
2019-05-23T12:17:25.822Z,7.72
2019-05-23T12:22:27.655Z,6.97
2019-05-23T12:27:29.421Z,7.25
2019-05-23T12:32:33.431Z,7.20
2019-05-23T12:37:35.056Z,7.83
2019-05-23T12:42:36.781Z,7.60
2019-05-23T12:47:50.652Z,7.90
2019-05-23T12:52:52.320Z,7.90
2019-05-23T12:57:54.625Z,8.18
2019-05-23T13:02:56.671Z,8.25
2019-05-23T13:07:58.483Z,7.08
2019-05-23T13:13:00.484Z,8.38
2019-05-23T13:18:02.400Z,7.35
2019-05-23T13:23:04.136Z,7.42
2019-05-23T13:28:06.013Z,7.72
2019-05-23T13:33:08.760Z,7.10
2019-05-23T13:38:10.481Z,7.67
2019-05-23T13:43:12.180Z,7.97
2019-05-23T13:48:15.076Z,8.58
2019-05-23T13:53:16.917Z,8.50
2019-05-23T13:58:19.102Z,7.00
2019-05-23T14:03:23.212Z,6.62
2019-05-23T14:08:24.919Z,6.70
2019-05-23T14:13:28.612Z,7.30
2019-05-23T14:18:32.975Z,7.65
2019-05-23T14:23:35.304Z,6.78
2019-05-23T14:28:38.247Z,7.83
2019-05-23T14:34:11.761Z,9.40
2019-05-23T14:39:38.979Z,7.67
2019-05-23T14:44:40.687Z,7.83
2019-05-23T14:49:48.335Z,7.05
2019-05-23T14:54:59.969Z,7.35
2019-05-23T15:00:05.247Z,6.97
2019-05-23T15:05:08.224Z,7.45
2019-05-23T15:10:10.080Z,8.10
2019-05-23T15:15:11.787Z,7.42
2019-05-23T15:20:15.749Z,7.12
2019-05-23T15:25:17.564Z,7.12
2019-05-23T15:30:19.606Z,6.67
2019-05-23T15:35:21.383Z,8.05
2019-05-23T15:40:23.320Z,7.15
2019-05-23T15:45:25.085Z,7.00
2019-05-23T15:50:31.296Z,6.80
2019-05-23T15:55:41.265Z,8.18
2019-05-23T16:00:55.753Z,8.05
2019-05-23T16:05:57.659Z,6.75
2019-05-23T16:10:59.331Z,7.05
2019-05-23T16:16:01.248Z,7.67
2019-05-23T16:21:03.059Z,7.12
2019-05-23T16:26:05.155Z,6.65
2019-05-23T16:31:06.875Z,8.25
2019-05-23T16:36:08.625Z,7.53
2019-05-23T16:41:11.604Z,7.35
2019-05-23T16:46:14.263Z,7.70
2019-05-23T16:51:16.004Z,8.43
2019-05-23T16:56:22.367Z,7.62
2019-05-23T17:01:54.882Z,7.95
2019-05-23T17:07:10.279Z,8.90
2019-05-23T17:12:30.558Z,8.15
2019-05-23T17:18:01.150Z,7.78
2019-05-23T17:23:07.820Z,8.08
2019-05-23T17:28:23.328Z,7.50
2019-05-23T17:33:25.549Z,8.13
2019-05-23T17:38:27.235Z,7.35
2019-05-23T17:43:28.928Z,8.50
2019-05-23T17:48:30.875Z,7.17
2019-05-23T17:53:32.494Z,8.05
2019-05-23T17:58:34.377Z,8.48
2019-05-23T18:03:36.150Z,8.20
2019-05-23T18:08:39.363Z,8.20
2019-05-23T18:13:40.933Z,8.38
2019-05-23T18:18:42.698Z,8.45
2019-05-23T18:23:44.524Z,8.78
2019-05-23T18:28:46.584Z,8.58
2019-05-23T18:33:48.658Z,9.85
2019-05-23T18:38:50.345Z,8.83
2019-05-23T18:43:52.116Z,8.88
2019-05-23T18:48:54.015Z,9.35
2019-05-23T18:53:55.673Z,8.35
2019-05-23T18:58:57.750Z,9.18
2019-05-23T19:03:59.470Z,8.28
2019-05-23T19:09:01.358Z,7.62
2019-05-23T19:14:03.368Z,8.13
2019-05-23T19:19:05.408Z,7.53
2019-05-23T19:24:08.325Z,7.95
2019-05-23T19:29:10.457Z,8.38
2019-05-23T19:34:12.247Z,9.35
2019-05-23T19:39:14.803Z,8.03
2019-05-23T19:44:16.521Z,9.05
2019-05-23T19:49:18.707Z,9.28
2019-05-23T19:54:20.807Z,9.45
2019-05-23T19:59:22.493Z,10.20
2019-05-23T20:04:30.963Z,10.48
2019-05-23T20:09:30.114Z,10.63
2019-05-23T20:14:32.245Z,11.15
2019-05-23T20:19:33.921Z,10.70
2019-05-23T20:24:35.623Z,11.22
2019-05-23T20:29:37.364Z,11.12
2019-05-23T20:34:39.045Z,11.90
2019-05-23T20:39:42.457Z,12.13
2019-05-23T20:44:44.278Z,11.50
2019-05-23T20:49:45.932Z,12.20
2019-05-23T20:54:47.710Z,12.85
2019-05-23T20:59:49.386Z,11.73
2019-05-23T21:04:51.033Z,13.45
2019-05-23T21:09:52.703Z,12.65
2019-05-23T21:14:54.317Z,11.73
2019-05-23T21:19:55.969Z,12.15
2019-05-23T21:24:57.663Z,12.60
2019-05-23T21:29:59.287Z,11.38
2019-05-23T21:35:01.052Z,12.00
2019-05-23T21:40:03.240Z,11.00
2019-05-23T21:45:05.087Z,11.03
2019-05-23T21:50:06.854Z,12.00
2019-05-23T21:55:10.915Z,11.78
2019-05-23T22:00:16.399Z,10.80
2019-05-23T22:05:18.916Z,11.05
2019-05-23T22:10:20.801Z,11.35
2019-05-23T22:15:34.822Z,11.30
2019-05-23T22:20:36.949Z,10.32
2019-05-23T22:25:38.647Z,12.50
2019-05-23T22:30:40.410Z,11.08
2019-05-23T22:35:41.996Z,11.95
2019-05-23T22:40:43.721Z,12.05
2019-05-23T22:45:47.063Z,12.33
2019-05-23T22:50:48.818Z,12.00
2019-05-23T22:55:50.444Z,11.55
2019-05-23T23:00:52.471Z,12.55
2019-05-23T23:05:54.179Z,13.05
2019-05-23T23:10:56.338Z,13.43
2019-05-23T23:15:58.069Z,14.13
2019-05-23T23:20:59.765Z,14.38
2019-05-23T23:26:01.487Z,15.15
2019-05-23T23:31:03.762Z,14.07
2019-05-23T23:36:05.716Z,14.53
2019-05-23T23:41:07.395Z,15.23
2019-05-23T23:46:27.311Z,14.93
2019-05-23T23:51:47.436Z,15.40
2019-05-23T23:57:07.485Z,14.68
